createdAt,value
2018-10-16T00:00:34.717Z,0.00
2018-10-16T00:01:34.717Z,0.00
2018-10-16T00:02:32.862Z,0.00
2018-10-16T00:03:34.717Z,0.00
2018-10-16T00:04:34.717Z,0.00
2018-10-16T00:05:34.219Z,0.00
2018-10-16T00:06:34.218Z,0.00
2018-10-16T00:07:34.219Z,0.00
2018-10-16T00:08:34.207Z,0.00
2018-10-16T00:09:34.218Z,0.00
2018-10-16T00:10:34.219Z,0.00
2018-10-16T00:11:34.217Z,0.00
2018-10-16T00:12:35.209Z,0.00
2018-10-16T00:13:34.222Z,0.00
2018-10-16T00:14:34.208Z,0.00
2018-10-16T00:15:34.219Z,0.00
2018-10-16T00:16:33.719Z,0.00
2018-10-16T00:17:33.719Z,0.00
2018-10-16T00:18:33.710Z,0.00
2018-10-16T00:19:33.718Z,0.00
2018-10-16T00:20:33.708Z,0.00
2018-10-16T00:21:33.720Z,0.00
2018-10-16T00:22:33.720Z,0.00
2018-10-16T00:23:34.711Z,0.00
2018-10-16T00:24:33.721Z,0.00
2018-10-16T00:25:33.709Z,0.00
2018-10-16T00:26:33.224Z,0.00
2018-10-16T00:27:33.219Z,0.00
2018-10-16T00:28:33.225Z,0.00
2018-10-16T00:29:33.222Z,0.00
2018-10-16T00:30:33.220Z,0.00
2018-10-16T00:31:31.466Z,0.00
2018-10-16T00:32:33.276Z,0.00
2018-10-16T00:33:33.220Z,0.00
2018-10-16T00:34:33.223Z,0.00
2018-10-16T00:35:33.221Z,0.00
2018-10-16T00:36:33.224Z,0.00
2018-10-16T00:37:33.731Z,0.00
2018-10-16T00:38:32.724Z,0.00
2018-10-16T00:39:32.723Z,0.00
2018-10-16T00:40:32.723Z,0.00
2018-10-16T00:41:32.722Z,0.00
2018-10-16T00:42:32.722Z,0.00
2018-10-16T00:43:32.712Z,0.00
2018-10-16T00:44:32.722Z,0.00
2018-10-16T00:45:32.728Z,0.00
2018-10-16T00:46:32.723Z,0.00
2018-10-16T00:47:32.224Z,0.00
2018-10-16T00:48:32.222Z,0.00
2018-10-16T00:49:32.230Z,0.00
2018-10-16T00:50:32.223Z,0.00
2018-10-16T00:51:32.223Z,0.00
2018-10-16T00:52:32.224Z,0.00
2018-10-16T00:53:32.223Z,0.00
2018-10-16T00:54:32.223Z,0.00
2018-10-16T00:55:33.215Z,0.00
2018-10-16T00:56:32.228Z,0.00
2018-10-16T00:57:31.728Z,0.00
2018-10-16T00:58:31.725Z,0.00
2018-10-16T00:59:31.725Z,0.00
2018-10-16T01:00:31.726Z,0.00
2018-10-16T01:01:32.715Z,0.00
2018-10-16T01:02:31.725Z,0.00
2018-10-16T01:03:31.725Z,0.00
2018-10-16T01:04:31.725Z,0.00
2018-10-16T01:05:31.738Z,0.00
2018-10-16T01:06:31.726Z,0.00
2018-10-16T01:07:30.726Z,0.00
2018-10-16T01:08:31.227Z,0.00
2018-10-16T01:09:31.228Z,0.00
2018-10-16T01:10:31.227Z,0.00
2018-10-16T01:11:31.229Z,0.00
2018-10-16T01:12:31.216Z,0.00
2018-10-16T01:13:31.229Z,0.00
2018-10-16T01:14:31.227Z,0.00
2018-10-16T01:15:31.233Z,0.00
2018-10-16T01:16:31.226Z,0.00
2018-10-16T01:17:31.228Z,0.00
2018-10-16T01:18:29.203Z,0.00
2018-10-16T01:19:30.727Z,0.00
2018-10-16T01:20:30.728Z,0.00
2018-10-16T01:21:30.729Z,0.00
2018-10-16T01:22:30.732Z,0.00
2018-10-16T01:23:30.731Z,0.00
2018-10-16T01:24:28.915Z,0.00
2018-10-16T01:25:30.731Z,0.00
2018-10-16T01:26:30.728Z,0.00
2018-10-16T01:27:30.729Z,0.00
2018-10-16T01:28:30.232Z,0.00
2018-10-16T01:29:30.228Z,0.00
2018-10-16T01:30:30.230Z,0.00
2018-10-16T01:31:30.231Z,0.00
2018-10-16T01:32:30.228Z,0.00
2018-10-16T01:33:30.230Z,0.00
2018-10-16T01:34:30.228Z,0.00
2018-10-16T01:35:30.230Z,0.00
2018-10-16T01:36:30.229Z,0.00
2018-10-16T01:37:30.229Z,0.00
2018-10-16T01:38:30.230Z,0.00
2018-10-16T01:39:29.730Z,0.00
2018-10-16T01:40:29.730Z,0.00
2018-10-16T01:41:29.731Z,0.00
2018-10-16T01:42:29.730Z,0.00
2018-10-16T01:43:29.730Z,0.00
2018-10-16T01:44:29.732Z,0.00
2018-10-16T01:45:29.731Z,0.00
2018-10-16T01:46:29.730Z,0.00
2018-10-16T01:47:29.732Z,0.00
2018-10-16T01:48:29.730Z,0.00
2018-10-16T01:49:29.231Z,0.00
2018-10-16T01:50:29.231Z,0.00
2018-10-16T01:51:29.232Z,0.00
2018-10-16T01:52:29.232Z,0.00
2018-10-16T01:53:29.230Z,0.00
2018-10-16T01:54:29.231Z,0.00
2018-10-16T01:55:29.232Z,0.00
2018-10-16T01:56:29.231Z,0.00
2018-10-16T01:57:29.233Z,0.00
2018-10-16T01:58:29.235Z,0.00
2018-10-16T01:59:28.732Z,0.00
2018-10-16T02:00:28.738Z,0.00
2018-10-16T02:01:28.733Z,0.00
2018-10-16T02:02:28.784Z,0.00
2018-10-16T02:03:28.732Z,0.00
2018-10-16T02:04:28.733Z,0.00
2018-10-16T02:05:29.723Z,0.00
2018-10-16T02:06:29.718Z,0.00
2018-10-16T02:07:28.725Z,0.00
2018-10-16T02:08:26.784Z,0.00
2018-10-16T02:09:26.735Z,0.00
2018-10-16T02:10:26.689Z,0.00
2018-10-16T02:11:26.637Z,0.00
2018-10-16T02:12:26.590Z,0.00
2018-10-16T02:13:26.541Z,0.00
2018-10-16T02:14:26.496Z,0.00
2018-10-16T02:15:26.444Z,0.00
2018-10-16T02:16:26.397Z,0.00
2018-10-16T02:17:28.236Z,0.00
2018-10-16T02:18:28.238Z,0.00
2018-10-16T02:19:29.225Z,0.00
2018-10-16T02:20:28.726Z,0.00
2018-10-16T02:21:27.725Z,0.00
2018-10-16T02:22:27.735Z,0.00
2018-10-16T02:23:27.725Z,0.00
2018-10-16T02:24:27.727Z,0.00
2018-10-16T02:25:28.727Z,0.00
2018-10-16T02:26:27.726Z,0.00
2018-10-16T02:27:27.726Z,0.00
2018-10-16T02:28:28.733Z,0.00
2018-10-16T02:29:27.727Z,0.00
2018-10-16T02:30:27.226Z,0.00
2018-10-16T02:31:27.236Z,0.00
2018-10-16T02:32:27.228Z,0.00
2018-10-16T02:33:28.228Z,0.00
2018-10-16T02:34:28.227Z,0.00
2018-10-16T02:35:27.227Z,0.00
2018-10-16T02:36:27.236Z,0.00
2018-10-16T02:37:27.227Z,0.00
2018-10-16T02:38:25.328Z,0.00
2018-10-16T02:39:27.228Z,0.00
2018-10-16T02:40:26.727Z,0.00
2018-10-16T02:41:26.775Z,0.00
2018-10-16T02:42:27.728Z,0.00
2018-10-16T02:43:26.729Z,0.00
2018-10-16T02:44:26.739Z,0.00
2018-10-16T02:45:26.728Z,0.00
2018-10-16T02:46:32.091Z,0.00
2018-10-16T02:48:19.825Z,0.00
2018-10-16T02:49:17.879Z,0.00
2018-10-16T02:50:19.805Z,0.00
2018-10-16T02:51:20.305Z,0.00
2018-10-16T02:52:20.305Z,0.00
2018-10-16T02:53:19.306Z,0.00
2018-10-16T02:54:17.637Z,0.00
2018-10-16T02:55:20.306Z,0.00
2018-10-16T02:56:20.307Z,0.00
2018-10-16T02:57:19.306Z,0.00
2018-10-16T02:58:20.307Z,0.00
2018-10-16T02:59:19.306Z,0.00
2018-10-16T03:00:20.306Z,0.00
2018-10-16T03:01:18.807Z,0.00
2018-10-16T03:02:19.808Z,0.00
2018-10-16T03:03:18.807Z,0.00
2018-10-16T03:04:19.809Z,0.00
2018-10-16T03:05:19.811Z,0.00
2018-10-16T03:06:18.807Z,0.00
2018-10-16T03:07:18.813Z,0.00
2018-10-16T03:08:18.808Z,0.00
2018-10-16T03:09:18.809Z,0.00
2018-10-16T03:10:19.809Z,0.00
2018-10-16T03:11:18.320Z,0.00
2018-10-16T03:12:18.319Z,0.00
2018-10-16T03:13:18.308Z,0.00
2018-10-16T03:14:19.309Z,0.00
2018-10-16T03:15:19.309Z,0.00
2018-10-16T03:16:18.310Z,0.00
2018-10-16T03:17:18.319Z,0.00
2018-10-16T03:18:18.309Z,0.00
2018-10-16T03:19:19.312Z,0.00
2018-10-16T03:20:18.328Z,0.00
2018-10-16T03:21:16.334Z,0.00
2018-10-16T03:22:18.809Z,0.00
2018-10-16T03:23:18.810Z,0.00
2018-10-16T03:24:18.810Z,0.00
2018-10-16T03:25:18.810Z,0.00
2018-10-16T03:26:18.811Z,0.00
2018-10-16T03:27:17.810Z,0.00
2018-10-16T03:28:18.810Z,0.00
2018-10-16T03:29:18.810Z,0.00
2018-10-16T03:30:18.814Z,0.00
2018-10-16T03:31:18.811Z,0.00
2018-10-16T03:32:18.327Z,0.00
2018-10-16T03:33:17.326Z,0.00
2018-10-16T03:34:18.314Z,0.00
2018-10-16T03:35:18.311Z,0.00
2018-10-16T03:36:17.311Z,0.00
2018-10-16T03:37:15.567Z,0.00
2018-10-16T03:38:17.320Z,0.00
2018-10-16T03:39:17.311Z,0.00
2018-10-16T03:40:17.312Z,0.00
2018-10-16T03:41:18.312Z,0.00
2018-10-16T03:42:16.322Z,0.00
2018-10-16T03:43:17.812Z,0.00
2018-10-16T03:44:16.814Z,0.00
2018-10-16T03:45:16.822Z,0.00
2018-10-16T03:46:16.823Z,0.00
2018-10-16T03:47:17.813Z,0.00
2018-10-16T03:48:17.812Z,0.00
2018-10-16T03:49:17.813Z,0.00
2018-10-16T03:50:17.814Z,0.00
2018-10-16T03:51:17.814Z,0.00
2018-10-16T03:52:16.821Z,0.00
2018-10-16T03:53:16.313Z,0.00
2018-10-16T03:54:17.313Z,0.00
2018-10-16T03:55:17.314Z,0.00
2018-10-16T03:56:16.316Z,0.00
2018-10-16T03:57:16.428Z,0.00
2018-10-16T03:58:16.517Z,0.00
2018-10-16T03:59:16.319Z,0.00
2018-10-16T04:00:17.314Z,0.00
2018-10-16T04:01:16.315Z,0.00
2018-10-16T04:02:17.320Z,0.00
2018-10-16T04:03:15.825Z,0.00
2018-10-16T04:04:16.830Z,0.00
2018-10-16T04:05:15.826Z,0.00
2018-10-16T04:06:16.816Z,0.00
2018-10-16T04:07:16.819Z,0.00
2018-10-16T04:08:16.808Z,0.00
2018-10-16T04:09:16.816Z,0.00
2018-10-16T04:10:15.816Z,0.00
2018-10-16T04:11:16.817Z,0.00
2018-10-16T04:12:15.827Z,0.00
2018-10-16T04:13:15.816Z,0.00
2018-10-16T04:14:13.800Z,0.00
2018-10-16T04:15:16.318Z,0.00
2018-10-16T04:16:15.316Z,0.00
2018-10-16T04:17:16.316Z,0.00
2018-10-16T04:18:16.319Z,0.00
2018-10-16T04:19:16.319Z,0.00
2018-10-16T04:20:15.318Z,0.00
2018-10-16T04:21:16.318Z,0.00
2018-10-16T04:22:16.329Z,0.00
2018-10-16T04:23:15.318Z,0.00
2018-10-16T04:24:14.820Z,0.00
2018-10-16T04:25:15.819Z,0.00
2018-10-16T04:26:15.824Z,0.00
2018-10-16T04:27:14.830Z,0.00
2018-10-16T04:28:15.826Z,0.00
2018-10-16T04:29:15.847Z,0.00
2018-10-16T04:30:13.038Z,0.00
2018-10-16T04:31:15.819Z,0.00
2018-10-16T04:32:14.819Z,0.00
2018-10-16T04:33:14.819Z,0.00
2018-10-16T04:34:15.822Z,0.00
2018-10-16T04:35:15.336Z,0.00
2018-10-16T04:36:14.320Z,0.00
2018-10-16T04:37:14.320Z,0.00
2018-10-16T04:38:14.331Z,0.00
2018-10-16T04:39:14.330Z,0.00
2018-10-16T04:40:15.332Z,0.00
2018-10-16T04:41:15.321Z,0.00
2018-10-16T04:42:14.333Z,0.00
2018-10-16T04:43:15.322Z,0.00
2018-10-16T04:44:14.321Z,0.00
2018-10-16T04:45:14.821Z,0.00
2018-10-16T04:46:14.821Z,0.00
2018-10-16T04:47:13.831Z,0.00
2018-10-16T04:48:13.821Z,0.00
2018-10-16T04:49:13.821Z,0.00
2018-10-16T04:50:14.822Z,0.00
2018-10-16T04:51:12.036Z,0.00
2018-10-16T04:52:13.823Z,0.00
2018-10-16T04:53:14.822Z,0.00
2018-10-16T04:54:14.823Z,0.00
2018-10-16T04:55:14.908Z,0.00
2018-10-16T04:56:13.323Z,0.00
2018-10-16T04:57:14.322Z,0.00
2018-10-16T04:58:14.323Z,0.00
2018-10-16T04:59:14.324Z,0.00
2018-10-16T05:00:13.325Z,0.00
2018-10-16T05:01:13.332Z,0.00
2018-10-16T05:02:14.324Z,0.00
2018-10-16T05:03:13.334Z,0.00
2018-10-16T05:04:13.423Z,0.00
2018-10-16T05:05:13.336Z,0.00
2018-10-16T05:06:13.826Z,0.00
2018-10-16T05:07:11.275Z,0.00
2018-10-16T05:08:13.825Z,0.00
2018-10-16T05:09:12.835Z,0.00
2018-10-16T05:10:12.837Z,0.00
2018-10-16T05:11:12.837Z,0.00
2018-10-16T05:12:12.826Z,0.00
2018-10-16T05:13:13.890Z,0.00
2018-10-16T05:14:12.825Z,0.00
2018-10-16T05:15:12.827Z,0.00
2018-10-16T05:16:13.828Z,0.00
2018-10-16T05:17:12.342Z,0.00
2018-10-16T05:18:13.327Z,0.00
2018-10-16T05:19:12.359Z,0.00
2018-10-16T05:20:13.327Z,0.00
2018-10-16T05:21:13.327Z,0.00
2018-10-16T05:22:13.329Z,0.00
2018-10-16T05:23:12.336Z,0.00
2018-10-16T05:24:11.340Z,0.00
2018-10-16T05:25:12.327Z,0.00
2018-10-16T05:26:13.335Z,0.00
2018-10-16T05:27:11.835Z,0.00
2018-10-16T05:28:11.873Z,0.00
2018-10-16T05:29:11.841Z,0.00
2018-10-16T05:30:11.829Z,0.00
2018-10-16T05:31:11.909Z,0.00
2018-10-16T05:32:12.829Z,0.00
2018-10-16T05:33:12.829Z,0.00
2018-10-16T05:34:12.831Z,0.00
2018-10-16T05:35:11.841Z,0.00
2018-10-16T05:36:11.829Z,0.00
2018-10-16T05:37:11.830Z,0.00
2018-10-16T05:38:11.344Z,0.00
2018-10-16T05:39:11.393Z,0.00
2018-10-16T05:40:12.330Z,0.00
2018-10-16T05:41:11.330Z,0.00
2018-10-16T05:42:12.364Z,0.00
2018-10-16T05:43:11.340Z,0.00
2018-10-16T05:44:12.332Z,0.00
2018-10-16T05:45:11.331Z,0.00
2018-10-16T05:46:12.331Z,0.00
2018-10-16T05:47:12.333Z,5.63
2018-10-16T05:48:10.842Z,5.63
2018-10-16T05:49:10.830Z,5.63
2018-10-16T05:50:10.831Z,5.63
2018-10-16T05:51:11.832Z,5.63
2018-10-16T05:52:10.828Z,11.25
2018-10-16T05:53:11.835Z,11.25
2018-10-16T05:54:11.854Z,11.25
2018-10-16T05:55:10.833Z,11.25
2018-10-16T05:56:10.832Z,16.88
2018-10-16T05:57:08.898Z,16.88
2018-10-16T05:58:09.844Z,16.88
2018-10-16T05:59:10.332Z,16.88
2018-10-16T06:00:10.333Z,22.50
2018-10-16T06:01:10.334Z,22.50
2018-10-16T06:02:11.334Z,22.50
2018-10-16T06:03:11.324Z,28.13
2018-10-16T06:04:10.333Z,28.13
2018-10-16T06:05:11.328Z,28.13
2018-10-16T06:06:11.329Z,33.75
2018-10-16T06:07:11.327Z,33.75
2018-10-16T06:08:08.372Z,39.38
2018-10-16T06:09:10.837Z,45.00
2018-10-16T06:10:09.834Z,45.00
2018-10-16T06:11:09.839Z,50.63
2018-10-16T06:12:10.899Z,56.25
2018-10-16T06:13:10.836Z,56.25
2018-10-16T06:14:10.837Z,61.88
2018-10-16T06:15:09.835Z,61.88
2018-10-16T06:16:10.941Z,61.88
2018-10-16T06:17:10.835Z,67.50
2018-10-16T06:18:09.846Z,67.50
2018-10-16T06:19:07.846Z,73.13
2018-10-16T06:20:09.334Z,78.75
2018-10-16T06:21:10.340Z,78.75
2018-10-16T06:22:09.346Z,78.75
2018-10-16T06:23:10.337Z,78.75
2018-10-16T06:24:09.336Z,84.38
2018-10-16T06:25:09.334Z,84.38
2018-10-16T06:26:09.337Z,84.38
2018-10-16T06:27:10.337Z,90.00
2018-10-16T06:28:10.338Z,90.00
2018-10-16T06:29:10.338Z,90.00
2018-10-16T06:30:08.841Z,90.00
2018-10-16T06:31:08.838Z,95.63
2018-10-16T06:32:08.838Z,101.25
2018-10-16T06:33:09.899Z,106.88
2018-10-16T06:34:08.849Z,112.50
2018-10-16T06:35:07.079Z,118.13
2018-10-16T06:36:08.849Z,123.75
2018-10-16T06:37:09.838Z,129.38
2018-10-16T06:38:08.849Z,135.00
2018-10-16T06:39:08.840Z,140.63
2018-10-16T06:40:09.338Z,151.88
2018-10-16T06:41:08.446Z,151.88
2018-10-16T06:42:09.343Z,163.13
2018-10-16T06:43:08.350Z,168.75
2018-10-16T06:44:09.340Z,180.00
2018-10-16T06:45:08.343Z,185.63
2018-10-16T06:46:09.342Z,196.88
2018-10-16T06:47:09.344Z,202.50
2018-10-16T06:48:08.609Z,202.50
2018-10-16T06:49:09.341Z,202.50
2018-10-16T06:50:08.342Z,208.13
2018-10-16T06:51:08.841Z,208.13
2018-10-16T06:52:08.841Z,213.75
2018-10-16T06:53:07.890Z,219.38
2018-10-16T06:54:08.842Z,219.38
2018-10-16T06:55:08.928Z,225.00
2018-10-16T06:56:08.843Z,230.63
2018-10-16T06:57:08.843Z,230.63
2018-10-16T06:58:08.844Z,230.63
2018-10-16T06:59:08.843Z,230.63
2018-10-16T07:00:07.885Z,230.63
2018-10-16T07:01:08.345Z,230.63
2018-10-16T07:02:05.789Z,241.88
2018-10-16T07:03:08.343Z,253.13
2018-10-16T07:04:08.345Z,264.38
2018-10-16T07:05:07.356Z,281.25
2018-10-16T07:06:08.344Z,286.88
2018-10-16T07:07:08.560Z,303.75
2018-10-16T07:08:08.345Z,315.00
2018-10-16T07:09:08.406Z,326.25
2018-10-16T07:10:07.357Z,337.50
2018-10-16T07:11:06.354Z,360.00
2018-10-16T07:12:06.854Z,371.25
2018-10-16T07:13:06.854Z,382.50
2018-10-16T07:14:06.854Z,382.50
2018-10-16T07:15:06.872Z,382.50
2018-10-16T07:16:07.845Z,382.50
2018-10-16T07:17:06.856Z,376.88
2018-10-16T07:18:07.845Z,376.88
2018-10-16T07:19:07.846Z,371.25
2018-10-16T07:20:06.866Z,371.25
2018-10-16T07:21:06.882Z,365.63
2018-10-16T07:22:07.347Z,365.63
2018-10-16T07:23:07.347Z,360.00
2018-10-16T07:24:06.375Z,354.38
2018-10-16T07:25:07.348Z,348.75
2018-10-16T07:26:06.359Z,343.13
2018-10-16T07:27:07.348Z,331.88
2018-10-16T07:28:07.351Z,331.88
2018-10-16T07:29:04.533Z,326.25
2018-10-16T07:30:06.390Z,320.63
2018-10-16T07:31:06.359Z,326.25
2018-10-16T07:32:06.348Z,331.88
2018-10-16T07:33:05.849Z,331.88
2018-10-16T07:34:06.848Z,331.88
2018-10-16T07:35:05.848Z,337.50
2018-10-16T07:36:05.848Z,348.75
2018-10-16T07:37:05.851Z,360.00
2018-10-16T07:38:06.916Z,371.25
2018-10-16T07:39:06.852Z,382.50
2018-10-16T07:40:03.996Z,393.75
2018-10-16T07:41:05.859Z,393.75
2018-10-16T07:42:06.850Z,399.38
2018-10-16T07:43:05.373Z,405.00
2018-10-16T07:44:06.350Z,410.63
2018-10-16T07:45:05.350Z,416.25
2018-10-16T07:46:05.356Z,421.88
2018-10-16T07:47:06.351Z,427.50
2018-10-16T07:48:06.351Z,433.13
2018-10-16T07:49:05.365Z,438.75
2018-10-16T07:50:05.391Z,444.38
2018-10-16T07:51:06.353Z,455.63
2018-10-16T07:52:06.353Z,466.88
2018-10-16T07:53:05.352Z,478.13
2018-10-16T07:54:04.852Z,489.38
2018-10-16T07:55:04.852Z,500.63
2018-10-16T07:56:03.251Z,517.50
2018-10-16T07:57:05.861Z,540.00
2018-10-16T07:58:05.852Z,545.63
2018-10-16T07:59:04.863Z,562.50
2018-10-16T08:00:04.851Z,568.13
2018-10-16T08:01:04.863Z,568.13
2018-10-16T08:02:04.864Z,568.13
2018-10-16T08:03:04.853Z,562.50
2018-10-16T08:04:04.855Z,562.50
2018-10-16T08:05:05.354Z,556.88
2018-10-16T08:06:04.355Z,568.13
2018-10-16T08:07:05.355Z,562.50
2018-10-16T08:08:05.355Z,562.50
2018-10-16T08:09:04.355Z,556.88
2018-10-16T08:10:05.358Z,551.25
2018-10-16T08:11:04.364Z,556.88
2018-10-16T08:12:04.365Z,568.13
2018-10-16T08:13:05.355Z,568.13
2018-10-16T08:14:05.355Z,573.75
2018-10-16T08:15:04.366Z,579.38
2018-10-16T08:16:04.855Z,579.38
2018-10-16T08:17:04.928Z,568.13
2018-10-16T08:18:03.869Z,573.75
2018-10-16T08:19:04.859Z,579.38
2018-10-16T08:20:04.858Z,573.75
2018-10-16T08:21:03.867Z,573.75
2018-10-16T08:22:03.868Z,573.75
2018-10-16T08:23:02.012Z,573.75
2018-10-16T08:24:01.965Z,579.38
2018-10-16T08:25:04.859Z,590.63
2018-10-16T08:26:04.369Z,607.50
2018-10-16T08:27:04.361Z,613.13
2018-10-16T08:28:04.358Z,635.63
2018-10-16T08:29:04.358Z,641.25
2018-10-16T08:30:04.452Z,663.75
2018-10-16T08:31:04.359Z,675.00
2018-10-16T08:32:03.358Z,686.25
2018-10-16T08:33:03.352Z,697.50
2018-10-16T08:34:04.362Z,703.13
2018-10-16T08:35:04.359Z,731.25
2018-10-16T08:36:03.424Z,759.38
2018-10-16T08:37:02.917Z,810.00
2018-10-16T08:38:02.860Z,871.88
2018-10-16T08:39:03.860Z,939.38
2018-10-16T08:40:02.860Z,1023.75
2018-10-16T08:41:02.871Z,1102.50
2018-10-16T08:42:03.947Z,1186.88
2018-10-16T08:43:02.860Z,1243.13
2018-10-16T08:44:03.864Z,1316.25
2018-10-16T08:45:03.902Z,1383.75
2018-10-16T08:46:03.863Z,1456.88
2018-10-16T08:47:03.863Z,1732.50
2018-10-16T08:48:03.365Z,1828.13
2018-10-16T08:49:03.363Z,1569.38
2018-10-16T08:50:00.784Z,1563.75
2018-10-16T08:51:03.363Z,1580.63
2018-10-16T08:52:02.362Z,1591.88
2018-10-16T08:53:02.368Z,1620.00
2018-10-16T08:54:02.363Z,1659.38
2018-10-16T08:55:03.443Z,1693.13
2018-10-16T08:56:03.364Z,1704.38
2018-10-16T08:57:02.375Z,1800.00
2018-10-16T08:58:02.374Z,2019.38
2018-10-16T08:59:02.378Z,2936.25
2018-10-16T09:00:01.877Z,4061.25
2018-10-16T09:01:02.864Z,4111.88
2018-10-16T09:02:02.865Z,3864.38
2018-10-16T09:03:02.866Z,3886.88
2018-10-16T09:04:02.866Z,3346.88
2018-10-16T09:05:01.866Z,2733.75
2018-10-16T09:06:02.868Z,2475.00
2018-10-16T09:07:02.868Z,2716.88
2018-10-16T09:08:02.871Z,2418.75
2018-10-16T09:09:01.871Z,1378.13
2018-10-16T09:10:01.868Z,1400.63
2018-10-16T09:11:02.868Z,1586.25
2018-10-16T09:12:01.369Z,1288.13
2018-10-16T09:13:01.421Z,1372.50
2018-10-16T09:14:02.416Z,1147.50
2018-10-16T09:15:02.370Z,1096.88
2018-10-16T09:16:02.371Z,1215.00
2018-10-16T09:16:59.651Z,1040.63
2018-10-16T09:18:02.369Z,973.13
2018-10-16T09:19:01.404Z,1006.88
2018-10-16T09:20:01.386Z,1147.50
2018-10-16T09:21:01.377Z,1428.75
2018-10-16T09:22:02.372Z,1428.75
2018-10-16T09:23:02.372Z,1665.00
2018-10-16T09:24:00.871Z,2148.75
2018-10-16T09:25:00.898Z,3813.75
2018-10-16T09:26:01.874Z,4443.75
2018-10-16T09:27:00.873Z,4021.88
2018-10-16T09:28:00.873Z,3841.88
2018-10-16T09:29:00.874Z,4533.75
2018-10-16T09:30:01.876Z,4663.13
2018-10-16T09:31:01.893Z,4381.88
2018-10-16T09:32:00.886Z,4561.88
2018-10-16T09:32:59.026Z,4674.38
2018-10-16T09:34:00.910Z,4601.25
2018-10-16T09:35:01.874Z,4848.75
2018-10-16T09:35:59.887Z,4573.13
2018-10-16T09:37:00.379Z,4432.50
2018-10-16T09:38:00.473Z,4269.38
2018-10-16T09:39:01.379Z,4190.63
2018-10-16T09:40:01.381Z,4365.00
2018-10-16T09:41:01.379Z,4370.63
2018-10-16T09:42:00.412Z,4353.75
2018-10-16T09:43:01.379Z,4590.00
2018-10-16T09:43:58.603Z,4393.13
2018-10-16T09:45:01.384Z,4556.25
2018-10-16T09:46:01.373Z,4657.50
2018-10-16T09:47:01.393Z,4831.88
2018-10-16T09:48:00.382Z,4770.00
2018-10-16T09:49:00.392Z,4663.13
2018-10-16T09:50:00.394Z,4843.13
2018-10-16T09:50:59.892Z,5017.50
2018-10-16T09:52:00.882Z,5017.50
2018-10-16T09:53:00.883Z,4837.50
2018-10-16T09:54:00.882Z,4871.25
2018-10-16T09:54:59.883Z,4905.00
2018-10-16T09:56:00.882Z,5006.25
2018-10-16T09:56:59.884Z,4910.63
2018-10-16T09:58:00.884Z,5096.25
2018-10-16T09:58:59.884Z,5000.63
2018-10-16T09:59:58.898Z,4657.50
2018-10-16T10:00:59.963Z,4359.38
2018-10-16T10:02:00.885Z,4275.00
2018-10-16T10:02:59.895Z,4207.50
2018-10-16T10:04:00.885Z,4201.88
2018-10-16T10:04:59.885Z,4241.25
2018-10-16T10:05:59.895Z,4224.38
2018-10-16T10:06:59.397Z,4078.13
2018-10-16T10:08:00.386Z,4320.00
2018-10-16T10:09:00.391Z,4342.50
2018-10-16T10:10:00.387Z,4207.50
2018-10-16T10:10:57.888Z,4320.00
2018-10-16T10:12:00.388Z,4348.13
2018-10-16T10:13:00.389Z,4483.13
2018-10-16T10:14:00.392Z,4078.13
2018-10-16T10:14:59.399Z,4095.00
2018-10-16T10:16:00.392Z,4168.13
2018-10-16T10:17:00.390Z,3954.38
2018-10-16T10:17:59.389Z,4387.50
2018-10-16T10:18:59.399Z,4601.25
2018-10-16T10:20:00.415Z,4500.00
2018-10-16T10:20:59.390Z,4550.63
2018-10-16T10:22:00.391Z,4545.00
2018-10-16T10:22:59.390Z,4387.50
2018-10-16T10:23:59.401Z,4584.38
2018-10-16T10:24:58.944Z,4736.25
2018-10-16T10:25:58.890Z,4196.25
2018-10-16T10:26:58.901Z,3830.63
2018-10-16T10:27:59.896Z,4033.13
2018-10-16T10:28:59.895Z,4432.50
2018-10-16T10:29:58.896Z,4488.75
2018-10-16T10:30:59.892Z,4207.50
2018-10-16T10:31:58.892Z,4725.00
2018-10-16T10:32:59.892Z,4972.50
2018-10-16T10:33:59.893Z,4685.63
2018-10-16T10:34:59.892Z,4606.88
2018-10-16T10:35:58.902Z,4578.75
2018-10-16T10:36:59.902Z,4578.75
2018-10-16T10:37:59.893Z,4651.88
2018-10-16T10:38:59.907Z,4708.13
2018-10-16T10:39:58.902Z,5045.63
2018-10-16T10:40:59.893Z,5467.50
2018-10-16T10:41:58.959Z,4618.13
2018-10-16T10:42:59.897Z,4078.13
2018-10-16T10:43:58.894Z,4387.50
2018-10-16T10:44:59.394Z,4331.25
2018-10-16T10:45:59.394Z,3813.75
2018-10-16T10:46:59.393Z,4078.13
2018-10-16T10:47:59.394Z,4955.63
2018-10-16T10:48:59.395Z,4736.25
2018-10-16T10:49:59.428Z,4888.13
2018-10-16T10:50:58.586Z,4910.63
2018-10-16T10:51:59.395Z,4938.75
2018-10-16T10:52:59.395Z,5000.63
2018-10-16T10:53:57.408Z,4843.13
2018-10-16T10:54:58.405Z,5118.75
2018-10-16T10:55:58.407Z,4933.13
2018-10-16T10:56:58.516Z,4826.25
2018-10-16T10:57:58.406Z,4511.25
2018-10-16T10:58:58.394Z,4308.75
2018-10-16T10:59:59.397Z,4747.50
2018-10-16T11:00:59.402Z,4477.50
2018-10-16T11:01:59.397Z,4460.63
2018-10-16T11:02:59.457Z,4573.13
2018-10-16T11:03:58.408Z,4376.25
2018-10-16T11:04:57.897Z,4426.88
2018-10-16T11:05:57.913Z,4471.88
2018-10-16T11:06:57.911Z,4606.88
2018-10-16T11:07:57.909Z,4893.75
2018-10-16T11:08:58.946Z,4511.25
2018-10-16T11:09:57.910Z,4837.50
2018-10-16T11:10:57.908Z,4888.13
2018-10-16T11:11:57.898Z,4561.88
2018-10-16T11:12:58.899Z,4179.38
2018-10-16T11:13:58.897Z,4246.88
2018-10-16T11:14:57.918Z,4342.50
2018-10-16T11:15:58.900Z,4415.63
2018-10-16T11:16:58.900Z,4713.75
2018-10-16T11:17:58.900Z,4713.75
2018-10-16T11:18:58.900Z,4815.00
2018-10-16T11:19:58.900Z,5017.50
2018-10-16T11:20:56.049Z,4764.38
2018-10-16T11:21:57.908Z,4685.63
2018-10-16T11:22:57.900Z,4944.38
2018-10-16T11:23:58.901Z,4736.25
2018-10-16T11:24:58.401Z,4612.50
2018-10-16T11:25:58.400Z,4713.75
2018-10-16T11:26:57.423Z,4933.13
2018-10-16T11:27:58.400Z,4162.50
2018-10-16T11:28:57.411Z,3048.75
2018-10-16T11:29:57.426Z,2109.38
2018-10-16T11:30:57.401Z,1355.63
2018-10-16T11:31:58.402Z,1237.50
2018-10-16T11:32:58.404Z,1125.00
2018-10-16T11:33:58.402Z,1057.50
2018-10-16T11:34:58.403Z,1006.88
2018-10-16T11:35:57.404Z,950.63
2018-10-16T11:36:57.481Z,911.25
2018-10-16T11:37:58.406Z,877.50
2018-10-16T11:38:57.420Z,843.75
2018-10-16T11:39:57.405Z,815.63
2018-10-16T11:40:58.404Z,793.13
2018-10-16T11:41:56.413Z,776.25
2018-10-16T11:42:56.914Z,765.00
2018-10-16T11:43:56.904Z,748.13
2018-10-16T11:44:57.923Z,748.13
2018-10-16T11:45:57.906Z,742.50
2018-10-16T11:46:57.907Z,742.50
2018-10-16T11:47:55.206Z,742.50
2018-10-16T11:48:57.914Z,742.50
2018-10-16T11:49:56.920Z,736.88
2018-10-16T11:50:57.909Z,736.88
2018-10-16T11:51:56.911Z,736.88
2018-10-16T11:52:56.908Z,742.50
2018-10-16T11:53:56.907Z,748.13
2018-10-16T11:54:56.908Z,759.38
2018-10-16T11:55:57.418Z,770.63
2018-10-16T11:56:56.409Z,787.50
2018-10-16T11:57:57.410Z,815.63
2018-10-16T11:58:56.410Z,832.50
2018-10-16T11:59:56.410Z,871.88
2018-10-16T12:00:56.417Z,911.25
2018-10-16T12:01:57.450Z,961.88
2018-10-16T12:02:56.420Z,1018.13
2018-10-16T12:03:54.609Z,1068.75
2018-10-16T12:04:57.414Z,1130.63
2018-10-16T12:05:56.459Z,1203.75
2018-10-16T12:06:57.422Z,1293.75
2018-10-16T12:07:56.430Z,1389.38
2018-10-16T12:08:55.928Z,1490.63
2018-10-16T12:09:55.923Z,1648.13
2018-10-16T12:10:55.955Z,1873.13
2018-10-16T12:11:56.918Z,2356.88
2018-10-16T12:12:55.958Z,2773.13
2018-10-16T12:13:55.974Z,3009.38
2018-10-16T12:14:54.938Z,3166.88
2018-10-16T12:15:55.934Z,3583.13
2018-10-16T12:16:55.993Z,3926.25
2018-10-16T12:17:55.926Z,3808.13
2018-10-16T12:18:55.983Z,3729.38
2018-10-16T12:19:55.974Z,3791.25
2018-10-16T12:20:53.983Z,3729.38
2018-10-16T12:21:55.419Z,3735.00
2018-10-16T12:22:55.425Z,3853.13
2018-10-16T12:23:55.817Z,3999.38
2018-10-16T12:24:55.480Z,4061.25
2018-10-16T12:25:55.526Z,4123.13
2018-10-16T12:26:56.450Z,3757.50
2018-10-16T12:27:55.439Z,3723.75
2018-10-16T12:28:55.517Z,3909.38
2018-10-16T12:29:55.446Z,3740.63
2018-10-16T12:30:55.468Z,3633.75
2018-10-16T12:31:55.795Z,3853.13
2018-10-16T12:32:56.461Z,3886.88
2018-10-16T12:33:55.431Z,3684.38
2018-10-16T12:34:55.431Z,3566.25
2018-10-16T12:35:54.431Z,3982.50
2018-10-16T12:36:54.988Z,3712.50
2018-10-16T12:37:55.922Z,3549.38
2018-10-16T12:38:55.933Z,3571.88
2018-10-16T12:39:55.933Z,3425.63
2018-10-16T12:40:55.970Z,3870.00
2018-10-16T12:41:54.956Z,4021.88
2018-10-16T12:42:56.003Z,3718.13
2018-10-16T12:43:54.949Z,3701.25
2018-10-16T12:44:54.947Z,3639.38